N223A NZAA-YSSY
Flight info
| Callsign | N223A |
|---|---|
| Flight time | 3h 8m |
| Altitude | 40000 |
| Route | VELMO DCT 38S163E/N0429F430 DCT PLUGA DCT RIKNI N774 MARLN |
| Aircraft | C25C/M-SDE2E3FGHRWXY/LB1 |
Departure
| Time | 2026-04-22 14:15 |
|---|---|
| Airport | Auckland International Airport (NZAA) |
Arrival
| Time | 2026-04-22 17:23 |
|---|---|
| Airport | Sydney Kingsford Smith International Airport (YSSY) |
| Time | Latitude | Longitude | Altitude | Speed | Heading |
|---|---|---|---|---|---|
| 2026-04-22 13:51 | -37.00781 | 174.78594 | 19 ft | 0 kts | 161° |
| 2026-04-22 14:06 | -37.00783 | 174.78596 | 19 ft | 1 kts | 146° |
| 2026-04-22 14:06 | -37.00786 | 174.78605 | 19 ft | 0 kts | 87° |
| 2026-04-22 14:06 | -37.00763 | 174.78610 | 19 ft | 7 kts | 341° |
| 2026-04-22 14:07 | -37.00721 | 174.78630 | 19 ft | 7 kts | 70° |
| 2026-04-22 14:07 | -37.00702 | 174.78701 | 19 ft | 9 kts | 72° |
| 2026-04-22 14:07 | -37.00721 | 174.78760 | 19 ft | 8 kts | 160° |
| 2026-04-22 14:07 | -37.00777 | 174.78785 | 19 ft | 9 kts | 161° |
| 2026-04-22 14:08 | -37.00834 | 174.78809 | 19 ft | 9 kts | 161° |
| 2026-04-22 14:08 | -37.00877 | 174.78795 | 19 ft | 7 kts | 251° |
| 2026-04-22 14:08 | -37.00893 | 174.78737 | 19 ft | 7 kts | 251° |
| 2026-04-22 14:08 | -37.00905 | 174.78690 | 19 ft | 10 kts | 251° |
| 2026-04-22 14:09 | -37.00932 | 174.78594 | 19 ft | 13 kts | 250° |
| 2026-04-22 14:09 | -37.01000 | 174.78567 | 19 ft | 12 kts | 174° |
| 2026-04-22 14:09 | -37.01046 | 174.78498 | 19 ft | 11 kts | 250° |
| 2026-04-22 14:09 | -37.01073 | 174.78404 | 19 ft | 12 kts | 251° |
| 2026-04-22 14:10 | -37.01103 | 174.78294 | 19 ft | 14 kts | 251° |
| 2026-04-22 14:10 | -37.01138 | 174.78171 | 19 ft | 16 kts | 251° |
| 2026-04-22 14:10 | -37.01176 | 174.78032 | 19 ft | 17 kts | 253° |
| 2026-04-22 14:10 | -37.01215 | 174.77890 | 19 ft | 17 kts | 251° |
| 2026-04-22 14:11 | -37.01254 | 174.77749 | 19 ft | 17 kts | 250° |
| 2026-04-22 14:11 | -37.01293 | 174.77609 | 19 ft | 17 kts | 251° |
| 2026-04-22 14:11 | -37.01330 | 174.77471 | 19 ft | 17 kts | 250° |
| 2026-04-22 14:11 | -37.01369 | 174.77333 | 19 ft | 17 kts | 250° |
| 2026-04-22 14:12 | -37.01408 | 174.77196 | 19 ft | 17 kts | 250° |
| 2026-04-22 14:12 | -37.01441 | 174.77115 | 19 ft | 6 kts | 200° |
| 2026-04-22 14:12 | -37.01484 | 174.77102 | 19 ft | 7 kts | 191° |
| 2026-04-22 14:12 | -37.01546 | 174.77088 | 19 ft | 11 kts | 189° |
| 2026-04-22 14:13 | -37.01607 | 174.77078 | 19 ft | 4 kts | 174° |
| 2026-04-22 14:13 | -37.01628 | 174.77097 | 19 ft | 4 kts | 114° |
| 2026-04-22 14:13 | -37.01621 | 174.77126 | 19 ft | 4 kts | 52° |
| 2026-04-22 14:13 | -37.01610 | 174.77157 | 19 ft | 0 kts | 74° |
| 2026-04-22 14:14 | -37.01582 | 174.77263 | 19 ft | 53 kts | 70° |
| 2026-04-22 14:14 | -37.01352 | 174.78141 | 125 ft | 148 kts | 76° |
| 2026-04-22 14:15 | -37.00987 | 174.79489 | 1078 ft | 177 kts | 76° |
| 2026-04-22 14:15 | -37.00588 | 174.81049 | 2262 ft | 201 kts | 77° |
| 2026-04-22 14:15 | -37.00167 | 174.82781 | 3514 ft | 217 kts | 76° |
| 2026-04-22 14:15 | -36.99635 | 174.84653 | 4665 ft | 247 kts | 70° |
| 2026-04-22 14:16 | -36.98911 | 174.86840 | 5330 ft | 306 kts | 71° |
| 2026-04-22 14:16 | -36.98595 | 174.89379 | 5327 ft | 293 kts | 100° |
| 2026-04-22 14:16 | -36.99437 | 174.91796 | 5332 ft | 315 kts | 128° |
| 2026-04-22 14:16 | -37.00994 | 174.93404 | 5132 ft | 275 kts | 157° |
| 2026-04-22 14:17 | -37.02764 | 174.93655 | 4856 ft | 246 kts | 190° |
| 2026-04-22 14:17 | -37.04259 | 174.92892 | 4705 ft | 223 kts | 213° |
| 2026-04-22 14:17 | -37.05264 | 174.91422 | 4131 ft | 227 kts | 239° |
| 2026-04-22 14:17 | -37.05767 | 174.89619 | 4045 ft | 209 kts | 250° |
| 2026-04-22 14:18 | -37.06243 | 174.87839 | 4165 ft | 230 kts | 249° |
| 2026-04-22 14:18 | -37.06736 | 174.85986 | 5275 ft | 224 kts | 248° |
| 2026-04-22 14:18 | -37.07259 | 174.84137 | 6284 ft | 226 kts | 249° |
| 2026-04-22 14:18 | -37.07773 | 174.82266 | 7236 ft | 229 kts | 249° |
| 2026-04-22 14:19 | -37.08302 | 174.80367 | 8133 ft | 233 kts | 249° |
| 2026-04-22 14:19 | -37.08847 | 174.78393 | 8732 ft | 251 kts | 249° |
| 2026-04-22 14:19 | -37.09435 | 174.76252 | 9367 ft | 263 kts | 249° |
| 2026-04-22 14:19 | -37.10044 | 174.74083 | 10233 ft | 265 kts | 246° |
| 2026-04-22 14:20 | -37.11792 | 174.69987 | 11827 ft | 268 kts | 241° |
| 2026-04-22 14:20 | -37.12686 | 174.67930 | 12649 ft | 269 kts | 241° |
| 2026-04-22 14:20 | -37.13554 | 174.65879 | 13429 ft | 271 kts | 242° |
| 2026-04-22 14:21 | -37.15338 | 174.61686 | 14859 ft | 275 kts | 243° |
| 2026-04-22 14:21 | -37.16248 | 174.59568 | 15517 ft | 277 kts | 242° |
| 2026-04-22 14:22 | -37.18077 | 174.55274 | 16819 ft | 281 kts | 243° |
| 2026-04-22 14:22 | -37.18995 | 174.53098 | 17470 ft | 283 kts | 243° |
| 2026-04-22 14:22 | -37.20868 | 174.48691 | 18732 ft | 288 kts | 243° |
| 2026-04-22 14:23 | -37.21820 | 174.46462 | 19313 ft | 290 kts | 244° |
| 2026-04-22 14:23 | -37.22768 | 174.44216 | 19895 ft | 292 kts | 244° |
| 2026-04-22 14:23 | -37.23727 | 174.41960 | 20490 ft | 294 kts | 245° |
| 2026-04-22 14:23 | -37.24690 | 174.39683 | 21083 ft | 297 kts | 245° |
| 2026-04-22 14:24 | -37.25651 | 174.37416 | 21673 ft | 299 kts | 245° |
| 2026-04-22 14:24 | -37.26628 | 174.35105 | 22265 ft | 301 kts | 245° |
| 2026-04-22 14:24 | -37.27614 | 174.32769 | 22844 ft | 303 kts | 246° |
| 2026-04-22 14:24 | -37.28609 | 174.30420 | 23410 ft | 306 kts | 246° |
| 2026-04-22 14:25 | -37.29605 | 174.28049 | 23910 ft | 308 kts | 246° |
| 2026-04-22 14:25 | -37.30618 | 174.25658 | 24331 ft | 311 kts | 246° |
| 2026-04-22 14:25 | -37.31631 | 174.23244 | 24756 ft | 313 kts | 246° |
| 2026-04-22 14:25 | -37.32657 | 174.20816 | 25158 ft | 314 kts | 247° |
| 2026-04-22 14:26 | -37.33465 | 174.18275 | 25561 ft | 314 kts | 253° |
| 2026-04-22 14:26 | -37.34227 | 174.15745 | 25994 ft | 314 kts | 252° |
| 2026-04-22 14:26 | -37.35014 | 174.13182 | 26360 ft | 316 kts | 252° |
| 2026-04-22 14:26 | -37.35811 | 174.10599 | 26728 ft | 317 kts | 252° |
| 2026-04-22 14:27 | -37.36595 | 174.08003 | 27077 ft | 319 kts | 252° |
| 2026-04-22 14:27 | -37.37392 | 174.05393 | 27435 ft | 320 kts | 252° |
| 2026-04-22 14:27 | -37.38188 | 174.02765 | 27771 ft | 322 kts | 252° |
| 2026-04-22 14:27 | -37.38993 | 174.00130 | 28108 ft | 324 kts | 252° |
| 2026-04-22 14:28 | -37.39795 | 173.97478 | 28432 ft | 325 kts | 252° |
| 2026-04-22 14:28 | -37.40605 | 173.94811 | 28742 ft | 327 kts | 253° |
| 2026-04-22 14:28 | -37.41416 | 173.92134 | 29040 ft | 328 kts | 252° |
| 2026-04-22 14:28 | -37.42229 | 173.89442 | 29330 ft | 329 kts | 252° |
| 2026-04-22 14:29 | -37.43048 | 173.86738 | 29606 ft | 331 kts | 252° |
| 2026-04-22 14:29 | -37.43865 | 173.84026 | 29863 ft | 332 kts | 252° |
| 2026-04-22 14:29 | -37.44690 | 173.81305 | 30116 ft | 333 kts | 252° |
| 2026-04-22 14:29 | -37.45509 | 173.78578 | 30392 ft | 333 kts | 252° |
| 2026-04-22 14:30 | -37.46333 | 173.75854 | 30625 ft | 333 kts | 252° |
| 2026-04-22 14:30 | -37.47141 | 173.73158 | 30843 ft | 333 kts | 252° |
| 2026-04-22 14:30 | -37.47965 | 173.70424 | 31059 ft | 334 kts | 252° |
| 2026-04-22 14:30 | -37.48785 | 173.67688 | 31276 ft | 334 kts | 252° |
| 2026-04-22 14:31 | -37.49607 | 173.64947 | 31495 ft | 335 kts | 252° |
| 2026-04-22 14:31 | -37.50432 | 173.62201 | 31711 ft | 335 kts | 252° |
| 2026-04-22 14:31 | -37.51254 | 173.59445 | 31930 ft | 336 kts | 252° |
| 2026-04-22 14:31 | -37.52080 | 173.56697 | 32145 ft | 336 kts | 252° |
| 2026-04-22 14:32 | -37.52902 | 173.53932 | 32362 ft | 337 kts | 252° |
| 2026-04-22 14:32 | -37.53719 | 173.51203 | 32526 ft | 338 kts | 252° |
| 2026-04-22 14:32 | -37.54542 | 173.48435 | 32803 ft | 337 kts | 251° |
| 2026-04-22 14:32 | -37.55369 | 173.45668 | 33039 ft | 337 kts | 251° |
| 2026-04-22 14:33 | -37.56194 | 173.42899 | 33254 ft | 338 kts | 251° |
| 2026-04-22 14:33 | -37.57017 | 173.40120 | 33468 ft | 339 kts | 251° |
| 2026-04-22 14:33 | -37.57847 | 173.37336 | 33683 ft | 339 kts | 251° |
| 2026-04-22 14:33 | -37.58674 | 173.34541 | 33905 ft | 339 kts | 251° |
| 2026-04-22 14:34 | -37.59502 | 173.31754 | 34127 ft | 340 kts | 251° |
| 2026-04-22 14:34 | -37.60328 | 173.28960 | 34316 ft | 340 kts | 251° |
| 2026-04-22 14:34 | -37.61158 | 173.26153 | 34502 ft | 340 kts | 252° |
| 2026-04-22 14:34 | -37.61975 | 173.23394 | 34697 ft | 340 kts | 251° |
| 2026-04-22 14:35 | -37.62799 | 173.20596 | 34870 ft | 341 kts | 251° |
| 2026-04-22 14:35 | -37.63629 | 173.17783 | 35070 ft | 340 kts | 252° |
| 2026-04-22 14:35 | -37.64454 | 173.14985 | 35255 ft | 341 kts | 251° |
| 2026-04-22 14:35 | -37.65279 | 173.12176 | 35413 ft | 342 kts | 251° |
| 2026-04-22 14:36 | -37.66109 | 173.09362 | 35603 ft | 342 kts | 251° |
| 2026-04-22 14:36 | -37.66934 | 173.06547 | 35778 ft | 342 kts | 251° |
| 2026-04-22 14:36 | -37.67761 | 173.03732 | 35962 ft | 342 kts | 251° |
| 2026-04-22 14:36 | -37.68585 | 173.00919 | 36148 ft | 342 kts | 251° |
| 2026-04-22 14:37 | -37.69410 | 172.98098 | 36322 ft | 342 kts | 251° |
| 2026-04-22 14:37 | -37.70236 | 172.95280 | 36510 ft | 342 kts | 251° |
| 2026-04-22 14:37 | -37.71059 | 172.92457 | 36686 ft | 342 kts | 251° |
| 2026-04-22 14:37 | -37.71765 | 172.90042 | 36834 ft | 343 kts | 252° |
| 2026-04-22 14:38 | -37.72588 | 172.87219 | 37021 ft | 343 kts | 251° |
| 2026-04-22 14:38 | -37.73412 | 172.84386 | 37191 ft | 343 kts | 252° |
| 2026-04-22 14:38 | -37.74236 | 172.81557 | 37378 ft | 344 kts | 251° |
| 2026-04-22 14:38 | -37.75061 | 172.78722 | 37538 ft | 344 kts | 251° |
| 2026-04-22 14:39 | -37.75885 | 172.75882 | 37697 ft | 345 kts | 251° |
| 2026-04-22 14:39 | -37.76711 | 172.73037 | 37884 ft | 344 kts | 251° |
| 2026-04-22 14:39 | -37.77533 | 172.70196 | 38039 ft | 345 kts | 251° |
| 2026-04-22 14:40 | -37.78904 | 172.65460 | 38319 ft | 345 kts | 251° |
| 2026-04-22 14:40 | -37.80004 | 172.61651 | 38500 ft | 346 kts | 251° |
| 2026-04-22 14:40 | -37.80829 | 172.58796 | 38680 ft | 345 kts | 251° |
| 2026-04-22 14:40 | -37.81654 | 172.55933 | 38771 ft | 347 kts | 251° |
| 2026-04-22 14:41 | -37.83328 | 172.50116 | 38774 ft | 358 kts | 251° |
| 2026-04-22 14:41 | -37.84193 | 172.47102 | 38785 ft | 371 kts | 251° |
| 2026-04-22 14:41 | -37.85073 | 172.44031 | 38801 ft | 381 kts | 251° |
| 2026-04-22 14:42 | -37.86929 | 172.37556 | 38845 ft | 400 kts | 251° |
| 2026-04-22 14:42 | -37.88844 | 172.30862 | 39091 ft | 408 kts | 251° |
| 2026-04-22 14:43 | -37.90763 | 172.24131 | 39103 ft | 404 kts | 251° |
| 2026-04-22 14:43 | -37.92661 | 172.17453 | 39107 ft | 402 kts | 252° |
| 2026-04-22 14:44 | -37.94536 | 172.10844 | 39123 ft | 400 kts | 251° |
| 2026-04-22 14:44 | -37.96417 | 172.04192 | 39264 ft | 403 kts | 251° |
| 2026-04-22 14:45 | -37.97366 | 172.00835 | 39479 ft | 404 kts | 251° |
| 2026-04-22 14:45 | -37.98311 | 171.97483 | 39702 ft | 405 kts | 251° |
| 2026-04-22 14:45 | -37.99266 | 171.94093 | 39829 ft | 408 kts | 251° |
| 2026-04-22 14:45 | -38.00221 | 171.90703 | 40060 ft | 409 kts | 251° |
| 2026-04-22 14:46 | -38.01178 | 171.87292 | 40186 ft | 412 kts | 251° |
| 2026-04-22 14:46 | -38.02136 | 171.83877 | 40434 ft | 411 kts | 252° |
| 2026-04-22 14:46 | -38.04051 | 171.77041 | 40748 ft | 414 kts | 251° |
| 2026-04-22 14:47 | -38.05988 | 171.70108 | 41023 ft | 417 kts | 252° |
| 2026-04-22 14:47 | -38.06957 | 171.66629 | 41176 ft | 418 kts | 252° |
| 2026-04-22 14:47 | -38.07912 | 171.63199 | 41734 ft | 409 kts | 251° |
| 2026-04-22 14:48 | -38.09820 | 171.56337 | 41989 ft | 414 kts | 252° |
| 2026-04-22 14:48 | -38.10777 | 171.52882 | 42152 ft | 415 kts | 252° |
| 2026-04-22 14:48 | -38.11726 | 171.49454 | 42736 ft | 406 kts | 252° |
| 2026-04-22 14:49 | -38.12657 | 171.46094 | 43130 ft | 402 kts | 252° |
| 2026-04-22 14:49 | -38.13587 | 171.42724 | 43216 ft | 406 kts | 252° |
| 2026-04-22 14:49 | -38.15448 | 171.35986 | 43265 ft | 394 kts | 252° |
| 2026-04-22 14:50 | -38.16341 | 171.32741 | 43264 ft | 383 kts | 252° |
| 2026-04-22 14:50 | -38.17208 | 171.29575 | 43269 ft | 377 kts | 252° |
| 2026-04-22 14:50 | -38.18951 | 171.23218 | 43268 ft | 385 kts | 252° |
| 2026-04-22 14:51 | -38.20726 | 171.16735 | 43282 ft | 397 kts | 252° |
| 2026-04-22 14:51 | -38.22566 | 171.09995 | 43288 ft | 409 kts | 252° |
| 2026-04-22 14:52 | -38.24452 | 171.03069 | 43290 ft | 419 kts | 252° |
| 2026-04-22 14:52 | -38.26156 | 170.95918 | 43297 ft | 425 kts | 259° |
| 2026-04-22 14:53 | -38.26569 | 170.92239 | 43290 ft | 413 kts | 266° |
| 2026-04-22 14:53 | -38.26656 | 170.88649 | 43282 ft | 399 kts | 272° |
| 2026-04-22 14:53 | -38.26109 | 170.81666 | 43275 ft | 394 kts | 276° |
| 2026-04-22 14:54 | -38.25485 | 170.74766 | 43282 ft | 391 kts | 276° |
| 2026-04-22 14:54 | -38.24846 | 170.67962 | 43282 ft | 388 kts | 276° |
| 2026-04-22 14:55 | -38.24208 | 170.61131 | 43286 ft | 391 kts | 276° |
| 2026-04-22 14:55 | -38.23555 | 170.54197 | 43285 ft | 398 kts | 276° |
| 2026-04-22 14:56 | -38.22888 | 170.47148 | 43293 ft | 404 kts | 276° |
| 2026-04-22 14:56 | -38.22322 | 170.41218 | 43296 ft | 408 kts | 277° |
| 2026-04-22 14:57 | -38.21629 | 170.34004 | 43299 ft | 412 kts | 277° |
| 2026-04-22 14:57 | -38.20927 | 170.26741 | 43296 ft | 416 kts | 277° |
| 2026-04-22 14:58 | -38.20216 | 170.19412 | 43295 ft | 418 kts | 277° |
| 2026-04-22 14:58 | -38.19497 | 170.12055 | 43295 ft | 421 kts | 277° |
| 2026-04-22 14:59 | -38.18767 | 170.04653 | 43297 ft | 423 kts | 277° |
| 2026-04-22 14:59 | -38.18029 | 169.97213 | 43296 ft | 425 kts | 277° |
| 2026-04-22 15:00 | -38.17287 | 169.89777 | 43295 ft | 422 kts | 277° |
| 2026-04-22 15:00 | -38.16549 | 169.82423 | 43294 ft | 423 kts | 277° |
| 2026-04-22 15:01 | -38.15798 | 169.74991 | 43291 ft | 425 kts | 277° |
| 2026-04-22 15:01 | -38.15039 | 169.67536 | 43296 ft | 426 kts | 277° |
| 2026-04-22 15:02 | -38.14271 | 169.60045 | 43299 ft | 428 kts | 277° |
| 2026-04-22 15:02 | -38.13499 | 169.52552 | 43301 ft | 427 kts | 277° |
| 2026-04-22 15:03 | -38.12731 | 169.45136 | 43296 ft | 420 kts | 277° |
| 2026-04-22 15:03 | -38.11969 | 169.37834 | 43289 ft | 415 kts | 277° |
| 2026-04-22 15:04 | -38.11203 | 169.30549 | 43287 ft | 418 kts | 277° |
| 2026-04-22 15:04 | -38.10434 | 169.23261 | 43282 ft | 414 kts | 277° |
| 2026-04-22 15:05 | -38.09669 | 169.16064 | 43281 ft | 409 kts | 277° |
| 2026-04-22 15:05 | -38.08913 | 169.08979 | 43289 ft | 406 kts | 277° |
| 2026-04-22 15:06 | -38.08151 | 169.01898 | 43289 ft | 403 kts | 277° |
| 2026-04-22 15:06 | -38.07396 | 168.94923 | 43285 ft | 398 kts | 277° |
| 2026-04-22 15:07 | -38.06632 | 168.87897 | 43288 ft | 405 kts | 277° |
| 2026-04-22 15:07 | -38.05851 | 168.80764 | 43296 ft | 411 kts | 277° |
| 2026-04-22 15:08 | -38.05058 | 168.73544 | 43305 ft | 415 kts | 277° |
| 2026-04-22 15:08 | -38.04256 | 168.66285 | 43302 ft | 419 kts | 277° |
| 2026-04-22 15:09 | -38.03435 | 168.58920 | 43308 ft | 423 kts | 278° |
| 2026-04-22 15:09 | -38.02605 | 168.51513 | 43311 ft | 423 kts | 278° |
| 2026-04-22 15:10 | -38.01780 | 168.44178 | 43305 ft | 417 kts | 278° |
| 2026-04-22 15:10 | -38.00960 | 168.36925 | 43299 ft | 413 kts | 278° |
| 2026-04-22 15:11 | -38.00146 | 168.29776 | 43289 ft | 411 kts | 278° |
| 2026-04-22 15:11 | -37.99318 | 168.22556 | 43288 ft | 416 kts | 278° |
| 2026-04-22 15:12 | -37.98477 | 168.15257 | 43296 ft | 420 kts | 278° |
| 2026-04-22 15:12 | -37.97626 | 168.07900 | 43303 ft | 424 kts | 278° |
| 2026-04-22 15:13 | -37.96770 | 168.00537 | 43310 ft | 420 kts | 278° |
| 2026-04-22 15:13 | -37.95915 | 167.93242 | 43307 ft | 417 kts | 278° |
| 2026-04-22 15:14 | -37.95062 | 167.86001 | 43299 ft | 414 kts | 278° |
| 2026-04-22 15:14 | -37.94209 | 167.78800 | 43297 ft | 412 kts | 278° |
| 2026-04-22 15:15 | -37.93357 | 167.71629 | 43294 ft | 410 kts | 278° |
| 2026-04-22 15:15 | -37.92509 | 167.64535 | 43296 ft | 409 kts | 278° |
| 2026-04-22 15:16 | -37.91653 | 167.57426 | 43297 ft | 408 kts | 278° |
| 2026-04-22 15:16 | -37.90793 | 167.50319 | 43295 ft | 408 kts | 278° |
| 2026-04-22 15:17 | -37.89932 | 167.43225 | 43295 ft | 407 kts | 278° |
| 2026-04-22 15:17 | -37.89066 | 167.36132 | 43295 ft | 410 kts | 278° |
| 2026-04-22 15:18 | -37.88182 | 167.28936 | 43303 ft | 416 kts | 278° |
| 2026-04-22 15:18 | -37.87282 | 167.21654 | 43311 ft | 421 kts | 278° |
| 2026-04-22 15:19 | -37.86368 | 167.14286 | 43313 ft | 426 kts | 278° |
| 2026-04-22 15:19 | -37.85442 | 167.06848 | 43312 ft | 429 kts | 278° |
| 2026-04-22 15:20 | -37.84503 | 166.99355 | 43311 ft | 432 kts | 278° |
| 2026-04-22 15:20 | -37.83554 | 166.91834 | 43312 ft | 434 kts | 278° |
| 2026-04-22 15:21 | -37.82601 | 166.84340 | 43307 ft | 432 kts | 278° |
| 2026-04-22 15:21 | -37.81649 | 166.76854 | 43307 ft | 430 kts | 278° |
| 2026-04-22 15:22 | -37.80698 | 166.69419 | 43306 ft | 427 kts | 279° |
| 2026-04-22 15:22 | -37.79744 | 166.62013 | 43301 ft | 426 kts | 279° |
| 2026-04-22 15:23 | -37.78788 | 166.54633 | 43294 ft | 425 kts | 279° |
| 2026-04-22 15:23 | -37.77838 | 166.47324 | 43295 ft | 423 kts | 279° |
| 2026-04-22 15:24 | -37.76874 | 166.39943 | 43293 ft | 422 kts | 278° |
| 2026-04-22 15:24 | -37.75919 | 166.32667 | 43294 ft | 422 kts | 279° |
| 2026-04-22 15:25 | -37.74953 | 166.25356 | 43294 ft | 421 kts | 279° |
| 2026-04-22 15:25 | -37.73984 | 166.18048 | 43294 ft | 421 kts | 279° |
| 2026-04-22 15:26 | -37.73013 | 166.10762 | 43293 ft | 421 kts | 279° |
| 2026-04-22 15:26 | -37.72044 | 166.03520 | 43293 ft | 421 kts | 279° |
| 2026-04-22 15:27 | -37.71060 | 165.96219 | 43295 ft | 421 kts | 279° |
| 2026-04-22 15:27 | -37.70075 | 165.88937 | 43297 ft | 420 kts | 279° |
| 2026-04-22 15:28 | -37.69087 | 165.81666 | 43295 ft | 420 kts | 279° |
| 2026-04-22 15:28 | -37.68101 | 165.74434 | 43295 ft | 420 kts | 279° |
| 2026-04-22 15:29 | -37.67103 | 165.67172 | 43298 ft | 420 kts | 279° |
| 2026-04-22 15:30 | -37.65763 | 165.57446 | 43297 ft | 421 kts | 279° |
| 2026-04-22 15:30 | -37.64589 | 165.48995 | 43299 ft | 421 kts | 279° |
| 2026-04-22 15:31 | -37.63574 | 165.41718 | 43298 ft | 421 kts | 279° |
| 2026-04-22 15:31 | -37.62555 | 165.34440 | 43304 ft | 420 kts | 279° |
| 2026-04-22 15:32 | -37.61540 | 165.27228 | 43304 ft | 420 kts | 279° |
| 2026-04-22 15:32 | -37.60513 | 165.19970 | 43304 ft | 420 kts | 279° |
| 2026-04-22 15:33 | -37.59482 | 165.12713 | 43303 ft | 420 kts | 279° |
| 2026-04-22 15:33 | -37.58445 | 165.05452 | 43296 ft | 421 kts | 279° |
| 2026-04-22 15:34 | -37.57402 | 164.98174 | 43295 ft | 422 kts | 279° |
| 2026-04-22 15:34 | -37.56355 | 164.90893 | 43296 ft | 422 kts | 279° |
| 2026-04-22 15:35 | -37.55479 | 164.84844 | 43298 ft | 422 kts | 279° |
| 2026-04-22 15:35 | -37.54250 | 164.76395 | 43301 ft | 422 kts | 279° |
| 2026-04-22 15:36 | -37.53187 | 164.69115 | 43298 ft | 422 kts | 279° |
| 2026-04-22 15:36 | -37.52122 | 164.61846 | 43295 ft | 422 kts | 279° |
| 2026-04-22 15:37 | -37.51050 | 164.54566 | 43299 ft | 422 kts | 280° |
| 2026-04-22 15:37 | -37.49978 | 164.47329 | 43299 ft | 423 kts | 279° |
| 2026-04-22 15:38 | -37.48896 | 164.40045 | 43296 ft | 423 kts | 280° |
| 2026-04-22 15:38 | -37.47262 | 164.29106 | 43291 ft | 424 kts | 279° |
| 2026-04-22 15:39 | -37.46166 | 164.21810 | 43291 ft | 424 kts | 280° |
| 2026-04-22 15:39 | -37.45078 | 164.14497 | 43289 ft | 424 kts | 279° |
| 2026-04-22 15:40 | -37.43962 | 164.07412 | 43285 ft | 404 kts | 279° |
| 2026-04-22 15:40 | -37.42947 | 164.00625 | 43285 ft | 386 kts | 280° |
| 2026-04-22 15:41 | -37.41940 | 163.94123 | 43281 ft | 371 kts | 279° |
| 2026-04-22 15:41 | -37.41440 | 163.90997 | 43285 ft | 355 kts | 278° |
| 2026-04-22 15:41 | -37.41038 | 163.88013 | 43274 ft | 338 kts | 277° |
| 2026-04-22 15:42 | -37.40624 | 163.85165 | 43270 ft | 323 kts | 281° |
| 2026-04-22 15:42 | -37.40162 | 163.82453 | 43270 ft | 314 kts | 281° |
| 2026-04-22 15:42 | -37.39329 | 163.77113 | 43279 ft | 312 kts | 279° |
| 2026-04-22 15:43 | -37.38505 | 163.71764 | 43284 ft | 311 kts | 280° |
| 2026-04-22 15:43 | -37.37677 | 163.66447 | 43287 ft | 309 kts | 279° |
| 2026-04-22 15:44 | -37.36846 | 163.60963 | 43307 ft | 330 kts | 279° |
| 2026-04-22 15:44 | -37.36389 | 163.58081 | 43306 ft | 342 kts | 280° |
| 2026-04-22 15:44 | -37.35920 | 163.55109 | 43304 ft | 351 kts | 280° |
| 2026-04-22 15:45 | -37.34960 | 163.48961 | 43305 ft | 369 kts | 280° |
| 2026-04-22 15:45 | -37.33943 | 163.42479 | 43304 ft | 385 kts | 278° |
| 2026-04-22 15:46 | -37.33055 | 163.36909 | 43301 ft | 397 kts | 280° |
| 2026-04-22 15:46 | -37.31962 | 163.30005 | 43296 ft | 409 kts | 279° |
| 2026-04-22 15:47 | -37.30829 | 163.22894 | 43307 ft | 420 kts | 279° |
| 2026-04-22 15:47 | -37.29666 | 163.15616 | 43304 ft | 430 kts | 279° |
| 2026-04-22 15:48 | -37.28474 | 163.08191 | 43301 ft | 436 kts | 280° |
| 2026-04-22 15:48 | -37.27267 | 163.00704 | 43299 ft | 439 kts | 280° |
| 2026-04-22 15:49 | -37.26056 | 162.93226 | 43301 ft | 441 kts | 280° |
| 2026-04-22 15:49 | -37.24826 | 162.85678 | 43303 ft | 442 kts | 281° |
| 2026-04-22 15:50 | -37.23598 | 162.78135 | 43298 ft | 440 kts | 281° |
| 2026-04-22 15:50 | -37.22364 | 162.70623 | 43303 ft | 438 kts | 280° |
| 2026-04-22 15:51 | -37.21135 | 162.63144 | 43298 ft | 437 kts | 281° |
| 2026-04-22 15:51 | -37.19900 | 162.55681 | 43294 ft | 436 kts | 280° |
| 2026-04-22 15:52 | -37.18664 | 162.48236 | 43291 ft | 436 kts | 280° |
| 2026-04-22 15:52 | -37.17423 | 162.40796 | 43289 ft | 435 kts | 280° |
| 2026-04-22 15:53 | -37.16189 | 162.33415 | 43287 ft | 435 kts | 281° |
| 2026-04-22 15:53 | -37.14942 | 162.26000 | 43287 ft | 434 kts | 281° |
| 2026-04-22 15:54 | -37.13693 | 162.18589 | 43285 ft | 434 kts | 280° |
| 2026-04-22 15:54 | -37.12437 | 162.11182 | 43284 ft | 434 kts | 280° |
| 2026-04-22 15:55 | -37.11180 | 162.03792 | 43287 ft | 434 kts | 281° |
| 2026-04-22 15:55 | -37.09917 | 161.96395 | 43285 ft | 433 kts | 281° |
| 2026-04-22 15:56 | -37.08652 | 161.89013 | 43286 ft | 433 kts | 280° |
| 2026-04-22 15:56 | -37.07382 | 161.81637 | 43286 ft | 433 kts | 281° |
| 2026-04-22 15:57 | -37.06109 | 161.74265 | 43287 ft | 433 kts | 280° |
| 2026-04-22 15:57 | -37.04830 | 161.66894 | 43287 ft | 433 kts | 280° |
| 2026-04-22 15:58 | -37.03555 | 161.59573 | 43283 ft | 433 kts | 280° |
| 2026-04-22 15:58 | -37.02266 | 161.52206 | 43295 ft | 433 kts | 280° |
| 2026-04-22 15:59 | -37.00975 | 161.44844 | 43292 ft | 433 kts | 280° |
| 2026-04-22 15:59 | -36.99680 | 161.37485 | 43294 ft | 433 kts | 281° |
| 2026-04-22 16:00 | -36.98375 | 161.30121 | 43298 ft | 433 kts | 281° |
| 2026-04-22 16:00 | -36.97070 | 161.22757 | 43296 ft | 433 kts | 281° |
| 2026-04-22 16:01 | -36.95756 | 161.15391 | 43301 ft | 433 kts | 281° |
| 2026-04-22 16:01 | -36.94448 | 161.08073 | 43299 ft | 433 kts | 281° |
| 2026-04-22 16:02 | -36.93125 | 161.00713 | 43300 ft | 434 kts | 281° |
| 2026-04-22 16:02 | -36.91798 | 160.93350 | 43304 ft | 434 kts | 281° |
| 2026-04-22 16:03 | -36.90468 | 160.85994 | 43294 ft | 434 kts | 281° |
| 2026-04-22 16:03 | -36.89130 | 160.78628 | 43294 ft | 434 kts | 281° |
| 2026-04-22 16:04 | -36.87789 | 160.71268 | 43300 ft | 435 kts | 281° |
| 2026-04-22 16:04 | -36.86450 | 160.63953 | 43297 ft | 435 kts | 281° |
| 2026-04-22 16:05 | -36.85096 | 160.56584 | 43296 ft | 435 kts | 281° |
| 2026-04-22 16:05 | -36.83740 | 160.49218 | 43303 ft | 436 kts | 281° |
| 2026-04-22 16:06 | -36.82375 | 160.41845 | 43302 ft | 436 kts | 281° |
| 2026-04-22 16:06 | -36.81004 | 160.34458 | 43306 ft | 436 kts | 282° |
| 2026-04-22 16:07 | -36.79627 | 160.27076 | 43307 ft | 436 kts | 282° |
| 2026-04-22 16:07 | -36.78248 | 160.19701 | 43300 ft | 436 kts | 281° |
| 2026-04-22 16:08 | -36.76864 | 160.12328 | 43302 ft | 437 kts | 281° |
| 2026-04-22 16:08 | -36.75471 | 160.04943 | 43300 ft | 437 kts | 281° |
| 2026-04-22 16:09 | -36.74086 | 159.97613 | 43303 ft | 437 kts | 282° |
| 2026-04-22 16:09 | -36.72687 | 159.90244 | 43306 ft | 436 kts | 282° |
| 2026-04-22 16:10 | -36.71284 | 159.82875 | 43297 ft | 436 kts | 282° |
| 2026-04-22 16:10 | -36.69877 | 159.75514 | 43302 ft | 436 kts | 282° |
| 2026-04-22 16:11 | -36.68464 | 159.68153 | 43298 ft | 437 kts | 282° |
| 2026-04-22 16:11 | -36.67047 | 159.60796 | 43296 ft | 437 kts | 281° |
| 2026-04-22 16:12 | -36.65626 | 159.53438 | 43298 ft | 437 kts | 281° |
| 2026-04-22 16:12 | -36.64209 | 159.46128 | 43305 ft | 437 kts | 282° |
| 2026-04-22 16:13 | -36.62776 | 159.38767 | 43303 ft | 436 kts | 282° |
| 2026-04-22 16:13 | -36.61341 | 159.31421 | 43303 ft | 436 kts | 281° |
| 2026-04-22 16:14 | -36.59902 | 159.24072 | 43305 ft | 437 kts | 281° |
| 2026-04-22 16:14 | -36.58459 | 159.16735 | 43303 ft | 436 kts | 281° |
| 2026-04-22 16:15 | -36.57010 | 159.09396 | 43304 ft | 436 kts | 281° |
| 2026-04-22 16:15 | -36.55558 | 159.02069 | 43308 ft | 436 kts | 281° |
| 2026-04-22 16:16 | -36.54113 | 158.94793 | 43307 ft | 436 kts | 281° |
| 2026-04-22 16:16 | -36.52652 | 158.87461 | 43307 ft | 436 kts | 281° |
| 2026-04-22 16:17 | -36.51188 | 158.80144 | 43302 ft | 436 kts | 282° |
| 2026-04-22 16:17 | -36.49716 | 158.72820 | 43304 ft | 436 kts | 281° |
| 2026-04-22 16:18 | -36.48245 | 158.65516 | 43307 ft | 436 kts | 282° |
| 2026-04-22 16:18 | -36.46770 | 158.58218 | 43308 ft | 436 kts | 281° |
| 2026-04-22 16:19 | -36.45291 | 158.50921 | 43308 ft | 436 kts | 282° |
| 2026-04-22 16:19 | -36.43804 | 158.43620 | 43310 ft | 436 kts | 282° |
| 2026-04-22 16:20 | -36.42324 | 158.36375 | 43313 ft | 436 kts | 282° |
| 2026-04-22 16:20 | -36.40831 | 158.29087 | 43313 ft | 435 kts | 282° |
| 2026-04-22 16:21 | -36.39325 | 158.21758 | 43310 ft | 435 kts | 282° |
| 2026-04-22 16:21 | -36.37833 | 158.14523 | 43312 ft | 435 kts | 282° |
| 2026-04-22 16:22 | -36.35573 | 158.03608 | 43312 ft | 435 kts | 282° |
| 2026-04-22 16:23 | -36.33302 | 157.92701 | 43316 ft | 436 kts | 282° |
| 2026-04-22 16:23 | -36.31783 | 157.85429 | 43312 ft | 435 kts | 282° |
| 2026-04-22 16:24 | -36.29496 | 157.74548 | 43317 ft | 432 kts | 282° |
| 2026-04-22 16:25 | -36.27978 | 157.67331 | 43314 ft | 433 kts | 282° |
| 2026-04-22 16:25 | -36.25705 | 157.56585 | 43314 ft | 430 kts | 282° |
| 2026-04-22 16:26 | -36.24186 | 157.49433 | 43315 ft | 429 kts | 282° |
| 2026-04-22 16:26 | -36.22662 | 157.42288 | 43312 ft | 428 kts | 282° |
| 2026-04-22 16:27 | -36.21139 | 157.35165 | 43316 ft | 427 kts | 282° |
| 2026-04-22 16:27 | -36.19616 | 157.28054 | 43315 ft | 427 kts | 282° |
| 2026-04-22 16:28 | -36.18089 | 157.20957 | 43304 ft | 426 kts | 282° |
| 2026-04-22 16:28 | -36.16561 | 157.13883 | 43320 ft | 425 kts | 282° |
| 2026-04-22 16:29 | -36.15032 | 157.06820 | 43323 ft | 425 kts | 282° |
| 2026-04-22 16:29 | -36.13501 | 156.99764 | 43322 ft | 425 kts | 282° |
| 2026-04-22 16:30 | -36.11963 | 156.92700 | 43318 ft | 425 kts | 282° |
| 2026-04-22 16:30 | -36.10432 | 156.85698 | 43325 ft | 424 kts | 282° |
| 2026-04-22 16:31 | -36.08887 | 156.78650 | 43325 ft | 424 kts | 282° |
| 2026-04-22 16:31 | -36.07602 | 156.72804 | 43325 ft | 424 kts | 282° |
| 2026-04-22 16:32 | -36.06052 | 156.65767 | 43326 ft | 424 kts | 282° |
| 2026-04-22 16:32 | -36.04246 | 156.57598 | 43326 ft | 424 kts | 282° |
| 2026-04-22 16:33 | -36.02941 | 156.51713 | 43325 ft | 423 kts | 282° |
| 2026-04-22 16:33 | -36.01390 | 156.44743 | 43326 ft | 423 kts | 282° |
| 2026-04-22 16:34 | -35.99824 | 156.37718 | 43327 ft | 425 kts | 282° |
| 2026-04-22 16:34 | -35.98249 | 156.30678 | 43329 ft | 425 kts | 282° |
| 2026-04-22 16:35 | -35.96669 | 156.23635 | 43328 ft | 426 kts | 282° |
| 2026-04-22 16:35 | -35.95079 | 156.16580 | 43331 ft | 426 kts | 282° |
| 2026-04-22 16:36 | -35.93487 | 156.09525 | 43330 ft | 427 kts | 282° |
| 2026-04-22 16:36 | -35.91897 | 156.02499 | 43332 ft | 427 kts | 282° |
| 2026-04-22 16:37 | -35.90294 | 155.95439 | 43337 ft | 427 kts | 283° |
| 2026-04-22 16:37 | -35.88683 | 155.88372 | 43327 ft | 428 kts | 282° |
| 2026-04-22 16:38 | -35.87067 | 155.81300 | 43326 ft | 428 kts | 282° |
| 2026-04-22 16:38 | -35.85455 | 155.74262 | 43338 ft | 428 kts | 282° |
| 2026-04-22 16:39 | -35.83832 | 155.67197 | 43342 ft | 428 kts | 283° |
| 2026-04-22 16:39 | -35.82205 | 155.60137 | 43325 ft | 428 kts | 283° |
| 2026-04-22 16:40 | -35.80571 | 155.53078 | 43327 ft | 428 kts | 283° |
| 2026-04-22 16:41 | -35.78118 | 155.42499 | 43335 ft | 428 kts | 283° |
| 2026-04-22 16:41 | -35.76475 | 155.35447 | 43335 ft | 428 kts | 283° |
| 2026-04-22 16:42 | -35.74840 | 155.28447 | 43335 ft | 428 kts | 283° |
| 2026-04-22 16:42 | -35.73190 | 155.21398 | 43341 ft | 428 kts | 283° |
| 2026-04-22 16:43 | -35.71536 | 155.14356 | 43345 ft | 428 kts | 283° |
| 2026-04-22 16:43 | -35.69873 | 155.07301 | 43342 ft | 428 kts | 283° |
| 2026-04-22 16:44 | -35.68208 | 155.00257 | 43339 ft | 428 kts | 283° |
| 2026-04-22 16:44 | -35.66542 | 154.93228 | 43338 ft | 428 kts | 283° |
| 2026-04-22 16:45 | -35.64874 | 154.86200 | 43344 ft | 428 kts | 283° |
| 2026-04-22 16:45 | -35.63211 | 154.79225 | 43341 ft | 427 kts | 283° |
| 2026-04-22 16:46 | -35.61535 | 154.72215 | 43346 ft | 427 kts | 283° |
| 2026-04-22 16:46 | -35.59050 | 154.65558 | 43333 ft | 434 kts | 302° |
| 2026-04-22 16:47 | -35.54942 | 154.60058 | 43341 ft | 439 kts | 314° |
| 2026-04-22 16:47 | -35.50670 | 154.54733 | 43345 ft | 436 kts | 307° |
| 2026-04-22 16:48 | -35.46913 | 154.48963 | 43349 ft | 436 kts | 307° |
| 2026-04-22 16:48 | -35.42881 | 154.43397 | 43351 ft | 436 kts | 308° |
| 2026-04-22 16:49 | -35.38954 | 154.37728 | 43350 ft | 436 kts | 307° |
| 2026-04-22 16:49 | -35.34980 | 154.32106 | 43337 ft | 436 kts | 308° |
| 2026-04-22 16:50 | -35.31014 | 154.26470 | 43332 ft | 436 kts | 308° |
| 2026-04-22 16:50 | -35.27077 | 154.20893 | 43338 ft | 434 kts | 308° |
| 2026-04-22 16:51 | -35.23126 | 154.15302 | 43336 ft | 434 kts | 308° |
| 2026-04-22 16:51 | -35.19182 | 154.09731 | 43332 ft | 433 kts | 308° |
| 2026-04-22 16:52 | -35.15238 | 154.04170 | 43330 ft | 432 kts | 308° |
| 2026-04-22 16:52 | -35.11290 | 153.98612 | 43340 ft | 432 kts | 308° |
| 2026-04-22 16:53 | -35.07345 | 153.93065 | 43344 ft | 432 kts | 308° |
| 2026-04-22 16:53 | -35.03397 | 153.87524 | 43336 ft | 432 kts | 308° |
| 2026-04-22 16:54 | -34.99469 | 153.82022 | 43340 ft | 432 kts | 308° |
| 2026-04-22 16:54 | -34.97477 | 153.79235 | 42876 ft | 437 kts | 308° |
| 2026-04-22 16:54 | -34.95491 | 153.76457 | 42372 ft | 432 kts | 307° |
| 2026-04-22 16:54 | -34.93530 | 153.73721 | 41855 ft | 425 kts | 307° |
| 2026-04-22 16:55 | -34.91608 | 153.71037 | 41390 ft | 415 kts | 306° |
| 2026-04-22 16:55 | -34.89725 | 153.68409 | 40918 ft | 406 kts | 306° |
| 2026-04-22 16:55 | -34.87885 | 153.65848 | 40459 ft | 399 kts | 306° |
| 2026-04-22 16:55 | -34.86068 | 153.63312 | 40005 ft | 396 kts | 306° |
| 2026-04-22 16:56 | -34.84264 | 153.60799 | 39555 ft | 392 kts | 305° |
| 2026-04-22 16:56 | -34.82472 | 153.58310 | 39110 ft | 390 kts | 305° |
| 2026-04-22 16:56 | -34.80691 | 153.55831 | 38601 ft | 387 kts | 304° |
| 2026-04-22 16:56 | -34.78929 | 153.53388 | 38162 ft | 382 kts | 304° |
| 2026-04-22 16:57 | -34.77205 | 153.50993 | 37727 ft | 381 kts | 305° |
| 2026-04-22 16:57 | -34.75457 | 153.48563 | 37292 ft | 382 kts | 305° |
| 2026-04-22 16:57 | -34.73701 | 153.46132 | 36856 ft | 383 kts | 305° |
| 2026-04-22 16:57 | -34.71938 | 153.43687 | 36413 ft | 384 kts | 305° |
| 2026-04-22 16:58 | -34.70768 | 153.42072 | 36115 ft | 385 kts | 305° |
| 2026-04-22 16:58 | -34.68399 | 153.38793 | 35528 ft | 386 kts | 305° |
| 2026-04-22 16:58 | -34.66622 | 153.36335 | 35088 ft | 387 kts | 305° |
| 2026-04-22 16:58 | -34.64834 | 153.33868 | 34638 ft | 391 kts | 305° |
| 2026-04-22 16:59 | -34.63044 | 153.31390 | 34160 ft | 398 kts | 305° |
| 2026-04-22 16:59 | -34.61215 | 153.28874 | 33686 ft | 397 kts | 306° |
| 2026-04-22 16:59 | -34.59383 | 153.26346 | 33225 ft | 400 kts | 306° |
| 2026-04-22 16:59 | -34.57534 | 153.23801 | 32764 ft | 403 kts | 306° |
| 2026-04-22 17:00 | -34.55675 | 153.21241 | 32300 ft | 404 kts | 307° |
| 2026-04-22 17:00 | -34.51939 | 153.16108 | 31366 ft | 407 kts | 308° |
| 2026-04-22 17:00 | -34.50064 | 153.13531 | 30896 ft | 407 kts | 308° |
| 2026-04-22 17:01 | -34.48192 | 153.10968 | 30419 ft | 405 kts | 309° |
| 2026-04-22 17:01 | -34.46326 | 153.08407 | 29912 ft | 403 kts | 309° |
| 2026-04-22 17:01 | -34.44471 | 153.05867 | 29435 ft | 401 kts | 309° |
| 2026-04-22 17:01 | -34.42628 | 153.03340 | 28976 ft | 399 kts | 309° |
| 2026-04-22 17:02 | -34.40817 | 153.00865 | 28535 ft | 397 kts | 309° |
| 2026-04-22 17:02 | -34.38988 | 152.98362 | 28083 ft | 395 kts | 309° |
| 2026-04-22 17:02 | -34.37167 | 152.95878 | 27647 ft | 393 kts | 309° |
| 2026-04-22 17:02 | -34.35353 | 152.93397 | 27196 ft | 393 kts | 309° |
| 2026-04-22 17:03 | -34.33535 | 152.90922 | 26742 ft | 394 kts | 309° |
| 2026-04-22 17:03 | -34.31719 | 152.88440 | 26290 ft | 394 kts | 309° |
| 2026-04-22 17:03 | -34.29895 | 152.85960 | 25838 ft | 395 kts | 309° |
| 2026-04-22 17:03 | -34.28072 | 152.83473 | 25382 ft | 395 kts | 309° |
| 2026-04-22 17:04 | -34.26244 | 152.80991 | 24923 ft | 395 kts | 309° |
| 2026-04-22 17:04 | -34.24418 | 152.78506 | 24471 ft | 396 kts | 309° |
| 2026-04-22 17:04 | -34.22585 | 152.76019 | 24016 ft | 396 kts | 309° |
| 2026-04-22 17:04 | -34.20755 | 152.73530 | 23519 ft | 396 kts | 309° |
| 2026-04-22 17:05 | -34.18918 | 152.71042 | 23052 ft | 395 kts | 310° |
| 2026-04-22 17:05 | -34.17098 | 152.68573 | 22594 ft | 393 kts | 309° |
| 2026-04-22 17:05 | -34.15279 | 152.66110 | 22145 ft | 392 kts | 310° |
| 2026-04-22 17:05 | -34.13466 | 152.63654 | 21692 ft | 391 kts | 309° |
| 2026-04-22 17:06 | -34.11660 | 152.61212 | 21244 ft | 389 kts | 310° |
| 2026-04-22 17:06 | -34.09857 | 152.58774 | 20787 ft | 388 kts | 309° |
| 2026-04-22 17:06 | -34.08250 | 152.56191 | 20331 ft | 383 kts | 293° |
| 2026-04-22 17:06 | -34.07570 | 152.53141 | 19905 ft | 375 kts | 274° |
| 2026-04-22 17:07 | -34.07384 | 152.50023 | 19480 ft | 371 kts | 268° |
| 2026-04-22 17:07 | -34.07315 | 152.46917 | 19060 ft | 370 kts | 268° |
| 2026-04-22 17:07 | -34.07112 | 152.43822 | 18629 ft | 371 kts | 274° |
| 2026-04-22 17:07 | -34.06733 | 152.40763 | 18176 ft | 365 kts | 275° |
| 2026-04-22 17:08 | -34.06420 | 152.37786 | 17707 ft | 359 kts | 273° |
| 2026-04-22 17:08 | -34.06163 | 152.34813 | 17113 ft | 358 kts | 272° |
| 2026-04-22 17:08 | -34.05897 | 152.31827 | 16586 ft | 356 kts | 274° |
| 2026-04-22 17:08 | -34.05607 | 152.28885 | 16166 ft | 351 kts | 274° |
| 2026-04-22 17:09 | -34.05327 | 152.25980 | 15766 ft | 347 kts | 274° |
| 2026-04-22 17:09 | -34.05048 | 152.23105 | 15369 ft | 343 kts | 274° |
| 2026-04-22 17:09 | -34.04871 | 152.21179 | 15103 ft | 341 kts | 274° |
| 2026-04-22 17:09 | -34.04504 | 152.17427 | 14585 ft | 339 kts | 274° |
| 2026-04-22 17:10 | -34.04239 | 152.14609 | 14194 ft | 338 kts | 275° |
| 2026-04-22 17:10 | -34.03961 | 152.11808 | 13778 ft | 336 kts | 275° |
| 2026-04-22 17:10 | -34.03697 | 152.09015 | 13390 ft | 334 kts | 275° |
| 2026-04-22 17:10 | -34.03422 | 152.06247 | 13007 ft | 332 kts | 275° |
| 2026-04-22 17:11 | -34.03154 | 152.03482 | 12626 ft | 331 kts | 275° |
| 2026-04-22 17:11 | -34.02868 | 152.00730 | 12244 ft | 330 kts | 275° |
| 2026-04-22 17:11 | -34.02598 | 151.97983 | 11864 ft | 329 kts | 275° |
| 2026-04-22 17:11 | -34.02317 | 151.95246 | 11485 ft | 329 kts | 275° |
| 2026-04-22 17:12 | -34.02047 | 151.92501 | 11102 ft | 329 kts | 275° |
| 2026-04-22 17:12 | -34.01765 | 151.89766 | 10727 ft | 329 kts | 275° |
| 2026-04-22 17:12 | -34.01491 | 151.87030 | 10350 ft | 329 kts | 275° |
| 2026-04-22 17:12 | -34.01210 | 151.84294 | 9946 ft | 329 kts | 275° |
| 2026-04-22 17:13 | -34.00934 | 151.81561 | 9564 ft | 327 kts | 275° |
| 2026-04-22 17:13 | -34.00654 | 151.78893 | 9196 ft | 322 kts | 277° |
| 2026-04-22 17:13 | -33.99972 | 151.76347 | 8821 ft | 319 kts | 295° |
| 2026-04-22 17:13 | -33.98978 | 151.73976 | 8465 ft | 315 kts | 296° |
| 2026-04-22 17:14 | -33.97986 | 151.71640 | 8095 ft | 312 kts | 296° |
| 2026-04-22 17:14 | -33.97016 | 151.69315 | 7742 ft | 306 kts | 294° |
| 2026-04-22 17:14 | -33.96103 | 151.67047 | 7396 ft | 295 kts | 295° |
| 2026-04-22 17:14 | -33.95202 | 151.64862 | 7056 ft | 286 kts | 294° |
| 2026-04-22 17:15 | -33.94626 | 151.63444 | 6844 ft | 282 kts | 294° |
| 2026-04-22 17:15 | -33.93486 | 151.60679 | 6403 ft | 275 kts | 296° |
| 2026-04-22 17:15 | -33.92648 | 151.58637 | 6083 ft | 269 kts | 296° |
| 2026-04-22 17:15 | -33.91815 | 151.56634 | 5780 ft | 266 kts | 295° |
| 2026-04-22 17:16 | -33.91005 | 151.54648 | 5471 ft | 263 kts | 296° |
| 2026-04-22 17:16 | -33.90190 | 151.52687 | 5172 ft | 260 kts | 295° |
| 2026-04-22 17:16 | -33.89396 | 151.50742 | 4870 ft | 258 kts | 295° |
| 2026-04-22 17:16 | -33.88597 | 151.48828 | 4571 ft | 254 kts | 295° |
| 2026-04-22 17:17 | -33.87830 | 151.46919 | 4282 ft | 253 kts | 291° |
| 2026-04-22 17:17 | -33.87605 | 151.44916 | 3971 ft | 235 kts | 252° |
| 2026-04-22 17:17 | -33.88055 | 151.43096 | 3720 ft | 221 kts | 252° |
| 2026-04-22 17:17 | -33.88440 | 151.41331 | 3470 ft | 214 kts | 248° |
| 2026-04-22 17:18 | -33.88865 | 151.39639 | 3225 ft | 208 kts | 251° |
| 2026-04-22 17:18 | -33.89239 | 151.37975 | 3034 ft | 202 kts | 250° |
| 2026-04-22 17:18 | -33.89453 | 151.36913 | 3004 ft | 192 kts | 252° |
| 2026-04-22 17:18 | -33.89723 | 151.35387 | 2978 ft | 180 kts | 250° |
| 2026-04-22 17:19 | -33.90572 | 151.32328 | 2995 ft | 151 kts | 255° |
| 2026-04-22 17:19 | -33.90920 | 151.30341 | 2675 ft | 147 kts | 250° |
| 2026-04-22 17:20 | -33.91613 | 151.27968 | 2078 ft | 154 kts | 246° |
| 2026-04-22 17:20 | -33.92169 | 151.25457 | 1459 ft | 156 kts | 249° |
| 2026-04-22 17:21 | -33.92451 | 151.24352 | 1220 ft | 123 kts | 244° |
| 2026-04-22 17:21 | -33.92919 | 151.22513 | 629 ft | 107 kts | 252° |
| 2026-04-22 17:22 | -33.93308 | 151.20878 | 369 ft | 99 kts | 255° |
| 2026-04-22 17:22 | -33.93495 | 151.20101 | 281 ft | 95 kts | 256° |
| 2026-04-22 17:22 | -33.93857 | 151.18554 | 50 ft | 99 kts | 256° |
| 2026-04-22 17:23 | -33.94042 | 151.17772 | 28 ft | 93 kts | 259° |
| 2026-04-22 17:23 | -33.94333 | 151.16538 | 19 ft | 32 kts | 255° |
| 2026-04-22 17:23 | -33.94332 | 151.16484 | 18 ft | 2 kts | 7° |
| 2026-04-22 17:24 | -33.94293 | 151.16503 | 20 ft | 10 kts | 338° |
| 2026-04-22 17:24 | -33.94264 | 151.16489 | 21 ft | 5 kts | 353° |
| 2026-04-22 17:24 | -33.94220 | 151.16528 | 22 ft | 12 kts | 87° |
| 2026-04-22 17:24 | -33.94190 | 151.16679 | 22 ft | 20 kts | 75° |
| 2026-04-22 17:25 | -33.94155 | 151.16835 | 25 ft | 19 kts | 74° |
| 2026-04-22 17:25 | -33.94119 | 151.16986 | 22 ft | 19 kts | 74° |
| 2026-04-22 17:25 | -33.94083 | 151.17138 | 26 ft | 19 kts | 72° |
| 2026-04-22 17:25 | -33.94054 | 151.17219 | 24 ft | 8 kts | 42° |
| 2026-04-22 17:26 | -33.93999 | 151.17232 | 22 ft | 9 kts | 345° |
| 2026-04-22 17:26 | -33.93959 | 151.17274 | 22 ft | 10 kts | 75° |
| 2026-04-22 17:26 | -33.93938 | 151.17362 | 20 ft | 15 kts | 75° |
| 2026-04-22 17:26 | -33.93902 | 151.17514 | 21 ft | 20 kts | 74° |
| 2026-04-22 17:27 | -33.93865 | 151.17671 | 25 ft | 19 kts | 75° |
| 2026-04-22 17:27 | -33.93828 | 151.17824 | 23 ft | 19 kts | 74° |
| 2026-04-22 17:27 | -33.93793 | 151.17975 | 24 ft | 19 kts | 76° |
| 2026-04-22 17:27 | -33.93758 | 151.18126 | 23 ft | 19 kts | 72° |
| 2026-04-22 17:28 | -33.93721 | 151.18277 | 25 ft | 19 kts | 74° |
| 2026-04-22 17:28 | -33.93685 | 151.18429 | 23 ft | 19 kts | 73° |
| 2026-04-22 17:28 | -33.93649 | 151.18583 | 24 ft | 19 kts | 75° |
| 2026-04-22 17:28 | -33.93613 | 151.18736 | 23 ft | 19 kts | 75° |
| 2026-04-22 17:29 | -33.93579 | 151.18834 | 25 ft | 8 kts | 32° |
| 2026-04-22 17:29 | -33.93525 | 151.18849 | 24 ft | 8 kts | 9° |
| 2026-04-22 17:29 | -33.93469 | 151.18860 | 25 ft | 9 kts | 9° |
| 2026-04-22 17:29 | -33.93413 | 151.18881 | 25 ft | 6 kts | 20° |
| 2026-04-22 17:30 | -33.93407 | 151.18920 | 23 ft | 6 kts | 97° |
| 2026-04-22 17:30 | -33.93412 | 151.18956 | 25 ft | 0 kts | 100° |
| 2026-04-22 17:30 | -33.93401 | 151.18976 | 24 ft | 5 kts | 9° |
| 2026-04-22 17:30 | -33.93376 | 151.18959 | 25 ft | 4 kts | 285° |
| 2026-04-22 17:31 | -33.93375 | 151.18924 | 23 ft | 5 kts | 279° |
| 2026-04-22 17:31 | -33.93374 | 151.18918 | 23 ft | 0 kts | 283° |